Pleasanton, Texas
Current Conditions -  °F | °C
As of 3:35 AM on Saturday 25 Oct 2014 (Local Time) from KPEZ Reporting Station
Clear Clear  
Wind Chill: 60°   Ceiling: Unl
Heat Index: 60°   Visibility: 10mi
Dew Point: 58°   Wind: 0mph
Humidity: 91%   Direction: NA
Pressure: 30.15"   Gusts: NA
Location:  28.97°N, 98.48°W
Report Text: KPEZ 250835Z AUTO 00000KT 10SM CLR 16/14 A3015 RMK AO2 T01580143
Loading
Personal Weather Stations






























Interactive Weather Map
Tropical Storm Tracking
New forecast layout! Learn more

10-Day Weather Forecast

Advertisements
Track Severe Weather on mobile